createdAt,value
2022-11-05T00:00:38.259Z,99653.13
2022-11-05T00:03:43.153Z,99658.05
2022-11-05T00:06:45.239Z,99660.48
2022-11-05T00:09:30.206Z,99662.50
2022-11-05T00:12:32.257Z,99654.88
2022-11-05T00:15:33.001Z,99653.39
2022-11-05T00:18:14.733Z,99655.99
2022-11-05T00:20:56.948Z,99657.94
2022-11-05T00:24:14.377Z,99659.98
2022-11-05T00:26:56.171Z,99659.66
2022-11-05T00:29:38.068Z,99663.48
2022-11-05T00:32:19.861Z,99666.73
2022-11-05T00:35:01.653Z,99666.79
2022-11-05T00:37:49.687Z,99665.80
2022-11-05T00:40:32.103Z,99667.80
2022-11-05T00:43:32.531Z,99673.55
2022-11-05T00:46:14.323Z,99674.02
2022-11-05T00:49:14.461Z,99673.20
2022-11-05T00:52:15.595Z,99677.98
2022-11-05T00:54:57.387Z,99682.56
2022-11-05T00:57:39.181Z,99685.64
2022-11-05T01:00:22.214Z,99683.17
2022-11-05T01:03:07.624Z,99691.07
2022-11-05T01:05:53.879Z,99696.88
2022-11-05T01:08:36.081Z,99701.17
2022-11-05T01:11:37.117Z,99697.41
2022-11-05T01:14:19.431Z,99702.30
2022-11-05T01:17:01.327Z,99702.95
2022-11-05T01:19:43.121Z,99699.33
2022-11-05T01:22:25.015Z,99700.67
2022-11-05T01:25:07.833Z,99703.19
2022-11-05T01:27:49.735Z,99700.71
2022-11-05T01:30:31.830Z,99699.42
2022-11-05T01:33:13.926Z,99702.16
2022-11-05T01:35:56.339Z,99705.16
2022-11-05T01:38:38.340Z,99703.91
2022-11-05T01:41:20.129Z,99710.41
2022-11-05T01:44:01.947Z,99716.82
2022-11-05T01:46:46.127Z,99720.70
2022-11-05T01:49:34.010Z,99724.73
2022-11-05T01:52:15.807Z,99729.85
2022-11-05T01:54:58.416Z,99735.20
2022-11-05T01:57:40.893Z,99736.80
2022-11-05T02:00:22.717Z,99740.73
2022-11-05T02:03:04.755Z,99742.89
2022-11-05T02:05:50.708Z,99750.64
2022-11-05T02:08:42.843Z,99754.27
2022-11-05T02:11:25.149Z,99759.02
2022-11-05T02:14:07.044Z,99764.11
2022-11-05T02:17:12.090Z,99762.41
2022-11-05T02:20:13.131Z,99772.82
2022-11-05T02:23:13.513Z,99772.69
2022-11-05T02:26:33.855Z,99771.46
2022-11-05T02:29:15.649Z,99779.52
2022-11-05T02:32:12.900Z,99780.41
2022-11-05T02:34:57.261Z,99781.50
2022-11-05T02:37:45.606Z,99778.45
2022-11-05T02:40:36.407Z,99773.93
2022-11-05T02:43:29.772Z,99775.25
2022-11-05T02:46:33.069Z,99772.80
2022-11-05T02:49:41.075Z,99778.60
2022-11-05T02:52:50.725Z,99778.85
2022-11-05T02:55:51.667Z,99780.30
2022-11-05T02:58:35.800Z,99776.48
2022-11-05T03:01:17.751Z,99781.59
2022-11-05T03:04:01.778Z,99783.68
2022-11-05T03:07:09.765Z,99786.20
2022-11-05T03:10:27.295Z,99796.66
2022-11-05T03:13:28.955Z,99797.85
2022-11-05T03:16:18.919Z,99806.82
2022-11-05T03:19:09.233Z,99818.10
2022-11-05T03:21:57.214Z,99825.94
2022-11-05T03:24:46.135Z,99828.95
2022-11-05T03:27:31.794Z,99829.09
2022-11-05T03:30:16.283Z,99834.25
2022-11-05T03:33:02.362Z,99840.23
2022-11-05T03:35:48.475Z,99845.20
2022-11-05T03:38:35.377Z,99848.77
2022-11-05T03:41:18.599Z,99853.59
2022-11-05T03:44:06.748Z,99858.98
2022-11-05T03:46:50.624Z,99861.95
2022-11-05T03:49:57.569Z,99870.75
2022-11-05T03:52:48.066Z,99870.52
2022-11-05T03:55:34.773Z,99875.23
2022-11-05T03:58:19.537Z,99886.05
2022-11-05T04:01:02.745Z,99890.95
2022-11-05T04:03:44.558Z,99902.45
2022-11-05T04:06:45.042Z,99908.67
2022-11-05T04:09:45.420Z,99910.25
2022-11-05T04:12:45.678Z,99912.52
2022-11-05T04:15:29.782Z,99916.68
2022-11-05T04:18:11.585Z,99917.95
2022-11-05T04:21:12.224Z,99913.73
2022-11-05T04:24:10.098Z,99918.39
2022-11-05T04:26:51.883Z,99917.16
2022-11-05T04:29:52.109Z,99919.98
2022-11-05T04:32:34.107Z,99923.83
2022-11-05T04:35:16.003Z,99919.52
2022-11-05T04:37:57.898Z,99921.79
2022-11-05T04:40:39.690Z,99923.80
2022-11-05T04:43:21.791Z,99923.13
2022-11-05T04:46:04.099Z,99926.87
2022-11-05T04:48:45.889Z,99932.19
2022-11-05T04:51:27.787Z,99940.98
2022-11-05T04:54:09.681Z,99943.59
2022-11-05T04:56:51.475Z,99949.43
2022-11-05T04:59:33.268Z,99954.80
2022-11-05T05:02:15.378Z,99960.95
2022-11-05T05:04:57.367Z,99966.26
2022-11-05T05:07:39.572Z,99968.77
2022-11-05T05:10:21.365Z,99973.88
2022-11-05T05:13:03.156Z,99976.95
2022-11-05T05:15:44.952Z,99978.11
2022-11-05T05:18:27.152Z,99979.21
2022-11-05T05:21:28.064Z,99981.84
2022-11-05T05:24:14.189Z,99985.81
2022-11-05T05:26:55.987Z,99987.76
2022-11-05T05:29:37.775Z,99992.52
2022-11-05T05:32:19.778Z,99993.61
2022-11-05T05:35:01.574Z,99997.71
2022-11-05T05:37:44.429Z,100008.22
2022-11-05T05:40:26.280Z,100016.02
2022-11-05T05:43:08.587Z,100022.84
2022-11-05T05:45:50.583Z,100031.98
2022-11-05T05:48:32.481Z,100041.02
2022-11-05T05:51:14.273Z,100046.81
2022-11-05T05:53:56.067Z,100055.42
2022-11-05T05:56:38.065Z,100061.27
2022-11-05T05:59:19.857Z,100068.63
2022-11-05T06:02:02.123Z,100066.52
2022-11-05T06:04:44.059Z,100067.00
2022-11-05T06:07:25.853Z,100075.66
2022-11-05T06:10:08.167Z,100086.82
2022-11-05T06:12:50.069Z,100089.60
2022-11-05T06:15:35.700Z,100100.86
2022-11-05T06:18:18.144Z,100105.70
2022-11-05T06:21:07.707Z,100113.86
2022-11-05T06:23:50.135Z,100116.33
2022-11-05T06:26:32.231Z,100122.64
2022-11-05T06:29:14.024Z,100128.65
2022-11-05T06:31:55.782Z,100127.02
2022-11-05T06:34:37.607Z,100135.24
2022-11-05T06:37:19.400Z,100142.53
2022-11-05T06:40:01.475Z,100146.13
2022-11-05T06:42:43.298Z,100145.19
2022-11-05T06:45:25.090Z,100141.85
2022-11-05T06:48:06.889Z,100146.63
2022-11-05T06:50:49.084Z,100148.88
2022-11-05T06:53:31.388Z,100161.36
2022-11-05T06:56:13.182Z,100171.40
2022-11-05T06:58:54.978Z,100177.73
2022-11-05T07:01:37.743Z,100187.90
2022-11-05T07:04:19.791Z,100191.87
2022-11-05T07:07:01.585Z,100191.72
2022-11-05T07:09:43.481Z,100195.05
2022-11-05T07:12:25.274Z,100197.77
2022-11-05T07:15:08.092Z,100196.42
2022-11-05T07:17:49.987Z,100197.80
2022-11-05T07:20:34.238Z,100202.87
2022-11-05T07:23:16.849Z,100212.16
2022-11-05T07:26:00.179Z,100218.36
2022-11-05T07:28:41.929Z,100217.93
2022-11-05T07:31:23.768Z,100214.84
2022-11-05T07:34:05.559Z,100222.73
2022-11-05T07:36:47.352Z,100223.98
2022-11-05T07:39:29.147Z,100230.33
2022-11-05T07:42:14.114Z,100232.96
2022-11-05T07:44:56.112Z,100233.59
2022-11-05T07:47:39.853Z,100235.91
2022-11-05T07:50:23.587Z,100234.02
2022-11-05T07:53:12.219Z,100243.60
2022-11-05T07:55:54.449Z,100241.35
2022-11-05T07:58:37.441Z,100249.74
2022-11-05T08:01:19.542Z,100253.27
2022-11-05T08:04:01.569Z,100258.39
2022-11-05T08:06:43.372Z,100260.56
2022-11-05T08:09:25.154Z,100260.28
2022-11-05T08:12:07.408Z,100262.94
2022-11-05T08:14:49.253Z,100271.12
2022-11-05T08:17:31.048Z,100278.39
2022-11-05T08:20:14.461Z,100291.92
2022-11-05T08:22:57.071Z,100298.42
2022-11-05T08:25:39.982Z,100301.30
2022-11-05T08:28:22.828Z,100302.61
2022-11-05T08:31:04.687Z,100308.41
2022-11-05T08:33:46.515Z,100316.99
2022-11-05T08:36:28.309Z,100319.05
2022-11-05T08:39:15.821Z,100323.08
2022-11-05T08:41:58.756Z,100344.34
2022-11-05T08:44:40.551Z,100343.70
2022-11-05T08:47:22.446Z,100341.66
2022-11-05T08:50:04.342Z,100347.98
2022-11-05T08:52:46.110Z,100354.71
2022-11-05T08:55:28.749Z,100353.36
2022-11-05T08:58:15.321Z,100355.65
2022-11-05T09:01:03.466Z,100362.86
2022-11-05T09:03:47.235Z,100365.95
2022-11-05T09:07:07.423Z,100369.46
2022-11-05T09:09:49.736Z,100378.59
2022-11-05T09:12:31.630Z,100384.47
2022-11-05T09:15:13.423Z,100391.89
2022-11-05T09:17:55.319Z,100396.18
2022-11-05T09:20:37.214Z,100403.95
2022-11-05T09:23:19.009Z,100400.92
2022-11-05T09:26:00.902Z,100398.61
2022-11-05T09:28:43.822Z,100400.56
2022-11-05T09:31:25.615Z,100410.58
2022-11-05T09:34:07.409Z,100415.40
2022-11-05T09:36:49.305Z,100411.24
2022-11-05T09:39:31.099Z,100408.33
2022-11-05T09:42:17.602Z,100415.55
2022-11-05T09:45:08.509Z,100419.73
2022-11-05T09:47:57.003Z,100424.09
2022-11-05T09:50:42.746Z,100426.52
2022-11-05T09:53:25.258Z,100428.14
2022-11-05T09:56:19.234Z,100431.41
2022-11-05T09:59:17.721Z,100432.56
2022-11-05T10:02:19.939Z,100441.98
2022-11-05T10:05:10.215Z,100450.30
2022-11-05T10:08:11.227Z,100451.06
2022-11-05T10:10:59.002Z,100457.61
2022-11-05T10:13:47.032Z,100454.40
2022-11-05T10:16:36.370Z,100454.15
2022-11-05T10:19:24.676Z,100453.55
2022-11-05T10:22:13.781Z,100457.09
2022-11-05T10:24:56.156Z,100459.88
2022-11-05T10:27:38.495Z,100463.34
2022-11-05T10:30:21.005Z,100465.08
2022-11-05T10:33:06.484Z,100464.77
2022-11-05T10:35:52.010Z,100467.48
2022-11-05T10:38:34.271Z,100472.56
2022-11-05T10:41:35.006Z,100478.02
2022-11-05T10:44:54.691Z,100481.80
2022-11-05T10:48:01.570Z,100489.27
2022-11-05T10:50:44.430Z,100494.26
2022-11-05T10:53:31.300Z,100495.27
2022-11-05T10:56:39.968Z,100497.67
2022-11-05T10:59:29.965Z,100507.20
2022-11-05T11:02:28.377Z,100510.59
2022-11-05T11:05:30.669Z,100525.45
2022-11-05T11:08:12.363Z,100522.89
2022-11-05T11:11:05.398Z,100527.22
2022-11-05T11:14:10.252Z,100531.09
2022-11-05T11:16:59.210Z,100534.10
2022-11-05T11:19:41.826Z,100535.92
2022-11-05T11:22:23.719Z,100531.95
2022-11-05T11:25:26.209Z,100531.58
2022-11-05T11:28:18.027Z,100523.58
2022-11-05T11:31:13.644Z,100524.82
2022-11-05T11:34:08.443Z,100527.92
2022-11-05T11:36:54.332Z,100532.14
2022-11-05T11:39:38.766Z,100535.71
2022-11-05T11:42:30.206Z,100541.98
2022-11-05T11:45:31.204Z,100542.13
2022-11-05T11:48:28.914Z,100552.02
2022-11-05T11:51:49.745Z,100558.03
2022-11-05T11:54:34.383Z,100553.09
2022-11-05T11:57:31.455Z,100550.48
2022-11-05T12:00:14.558Z,100543.53
2022-11-05T12:03:15.950Z,100545.25
2022-11-05T12:06:34.309Z,100554.62
2022-11-05T12:09:37.048Z,100557.23
2022-11-05T12:12:28.363Z,100556.66
2022-11-05T12:15:10.158Z,100552.33
2022-11-05T12:18:03.317Z,100549.54
2022-11-05T12:21:05.492Z,100549.93
2022-11-05T12:24:14.622Z,100544.78
2022-11-05T12:27:41.603Z,100548.13
2022-11-05T12:30:24.007Z,100553.41
2022-11-05T12:33:36.374Z,100559.16
2022-11-05T12:36:52.340Z,100567.46
2022-11-05T12:39:48.840Z,100573.17
2022-11-05T12:42:43.657Z,100575.78
2022-11-05T12:45:43.501Z,100581.56
2022-11-05T12:48:52.602Z,100582.35
2022-11-05T12:52:16.275Z,100580.79
2022-11-05T12:55:25.334Z,100583.34
2022-11-05T12:58:16.051Z,100587.33
2022-11-05T13:01:10.507Z,100585.98
2022-11-05T13:04:07.283Z,100591.29
2022-11-05T13:06:54.986Z,100591.83
2022-11-05T13:09:52.890Z,100596.11
2022-11-05T13:12:54.430Z,100601.70
2022-11-05T13:19:08.993Z,100609.35
2022-11-05T13:22:09.166Z,100609.61
2022-11-05T13:25:15.770Z,100613.33
2022-11-05T13:28:40.356Z,100618.49
2022-11-05T13:31:39.283Z,100620.77
2022-11-05T13:34:25.465Z,100627.57
2022-11-05T13:37:29.296Z,100638.47
2022-11-05T13:40:15.315Z,100640.80
2022-11-05T13:43:04.023Z,100638.34
2022-11-05T13:46:12.149Z,100634.67
2022-11-05T13:49:16.934Z,100633.11
2022-11-05T13:52:40.247Z,100629.09
2022-11-05T13:55:48.733Z,100622.64
2022-11-05T13:58:30.527Z,100625.91
2022-11-05T14:01:43.887Z,100632.96
2022-11-05T14:04:41.522Z,100630.19
2022-11-05T14:07:45.880Z,100634.55
2022-11-05T14:10:41.686Z,100645.73
2022-11-05T14:13:47.185Z,100646.81
2022-11-05T14:16:48.780Z,100648.31
2022-11-05T14:19:35.688Z,100658.70
2022-11-05T14:22:32.961Z,100656.81
2022-11-05T14:25:18.013Z,100655.18
2022-11-05T14:27:59.807Z,100655.84
2022-11-05T14:30:45.053Z,100662.06
2022-11-05T14:33:26.877Z,100663.33
2022-11-05T14:36:30.230Z,100665.81
2022-11-05T14:39:32.798Z,100669.33
2022-11-05T14:42:15.379Z,100673.70
2022-11-05T14:45:26.401Z,100677.08
2022-11-05T14:48:40.423Z,100676.58
2022-11-05T14:51:33.681Z,100682.77
2022-11-05T14:54:41.896Z,100691.41
2022-11-05T14:57:59.039Z,100690.96
2022-11-05T15:00:50.603Z,100698.12
2022-11-05T15:03:48.161Z,100700.34
2022-11-05T15:06:36.326Z,100706.16
2022-11-05T15:09:34.260Z,100705.48
2022-11-05T15:12:38.865Z,100705.33
2022-11-05T15:15:28.648Z,100710.06
2022-11-05T15:18:48.464Z,100711.04
2022-11-05T15:21:37.074Z,100705.82
2022-11-05T15:24:21.928Z,100710.77
2022-11-05T15:27:22.314Z,100716.18
2022-11-05T15:30:28.166Z,100720.05
2022-11-05T15:33:21.609Z,100724.29
2022-11-05T15:36:25.363Z,100724.94
2022-11-05T15:39:29.311Z,100722.88
2022-11-05T15:42:19.373Z,100725.61
2022-11-05T15:45:01.264Z,100731.98
2022-11-05T15:47:46.638Z,100731.98
2022-11-05T15:50:29.045Z,100739.98
2022-11-05T15:53:47.427Z,100746.04
2022-11-05T15:56:30.314Z,100758.19
2022-11-05T15:59:18.320Z,100760.25
2022-11-05T16:02:22.467Z,100761.92
2022-11-05T16:05:12.354Z,100758.51
2022-11-05T16:07:54.564Z,100759.45
2022-11-05T16:10:39.022Z,100760.05
2022-11-05T16:13:21.727Z,100761.55
2022-11-05T16:16:07.328Z,100763.28
2022-11-05T16:18:49.206Z,100767.32
2022-11-05T16:21:31.286Z,100767.27
2022-11-05T16:24:29.062Z,100767.59
2022-11-05T16:27:20.130Z,100773.06
2022-11-05T16:30:01.978Z,100772.37
2022-11-05T16:32:43.876Z,100777.09
2022-11-05T16:35:25.975Z,100784.91
2022-11-05T16:38:12.043Z,100788.00
2022-11-05T16:40:54.069Z,100792.10
2022-11-05T16:43:35.862Z,100789.80
2022-11-05T16:46:17.756Z,100795.03
2022-11-05T16:48:59.548Z,100799.04
2022-11-05T16:51:41.659Z,100806.47
2022-11-05T16:54:23.445Z,100806.48
2022-11-05T16:57:07.117Z,100810.64
2022-11-05T16:59:49.180Z,100813.10
2022-11-05T17:02:31.395Z,100812.87
2022-11-05T17:05:31.089Z,100815.04
2022-11-05T17:08:13.001Z,100811.88
2022-11-05T17:10:54.990Z,100813.05
2022-11-05T17:13:36.784Z,100813.15
2022-11-05T17:16:18.678Z,100814.77
2022-11-05T17:19:00.632Z,100816.48
2022-11-05T17:21:42.679Z,100818.38
2022-11-05T17:24:24.572Z,100825.91
2022-11-05T17:27:06.776Z,100825.93
2022-11-05T17:29:49.898Z,100831.66
2022-11-05T17:32:31.709Z,100835.99
2022-11-05T17:35:14.613Z,100843.42
2022-11-05T17:37:56.814Z,100846.15
2022-11-05T17:40:39.671Z,100851.56
2022-11-05T17:43:21.835Z,100856.70
2022-11-05T17:46:08.542Z,100866.36
2022-11-05T17:48:52.265Z,100872.95
2022-11-05T17:51:34.997Z,100873.48
2022-11-05T17:54:16.792Z,100872.38
2022-11-05T17:56:58.583Z,100875.64
2022-11-05T17:59:42.324Z,100878.85
2022-11-05T18:02:25.197Z,100881.65
2022-11-05T18:05:08.777Z,100886.77
2022-11-05T18:07:50.982Z,100891.74
2022-11-05T18:10:33.703Z,100894.48
2022-11-05T18:13:15.923Z,100894.21
2022-11-05T18:15:57.911Z,100896.55
2022-11-05T18:18:39.794Z,100905.90
2022-11-05T18:21:21.687Z,100907.02
2022-11-05T18:24:07.061Z,100911.38
2022-11-05T18:26:49.473Z,100909.05
2022-11-05T18:29:31.366Z,100906.79
2022-11-05T18:32:13.163Z,100911.07
2022-11-05T18:34:57.206Z,100907.98
2022-11-05T18:37:39.411Z,100907.42
2022-11-05T18:40:21.614Z,100911.27
2022-11-05T18:43:03.817Z,100914.60
2022-11-05T18:45:45.711Z,100915.41
2022-11-05T18:48:28.774Z,100915.66
2022-11-05T18:51:15.901Z,100918.00
2022-11-05T18:53:57.851Z,100916.14
2022-11-05T18:56:45.840Z,100913.80
2022-11-05T18:59:37.768Z,100915.02
2022-11-05T19:02:21.907Z,100917.80
2022-11-05T19:05:27.986Z,100920.40
2022-11-05T19:08:13.416Z,100920.00
2022-11-05T19:10:57.662Z,100920.55
2022-11-05T19:13:40.721Z,100919.39
2022-11-05T19:16:26.349Z,100920.32
2022-11-05T19:19:10.406Z,100920.66
2022-11-05T19:21:53.847Z,100929.91
2022-11-05T19:24:38.839Z,100932.99
2022-11-05T19:27:27.898Z,100932.68
2022-11-05T19:30:10.615Z,100933.57
2022-11-05T19:32:52.694Z,100933.06
2022-11-05T19:35:40.905Z,100936.00
2022-11-05T19:38:24.163Z,100937.84
2022-11-05T19:41:12.196Z,100942.38
2022-11-05T19:43:55.224Z,100946.81
2022-11-05T19:46:37.325Z,100947.72
2022-11-05T19:49:19.220Z,100943.23
2022-11-05T19:52:01.321Z,100947.16
2022-11-05T19:54:46.468Z,100945.39
2022-11-05T19:57:29.895Z,100952.28
2022-11-05T20:00:12.642Z,100952.23
2022-11-05T20:02:55.671Z,100951.06
2022-11-05T20:05:42.474Z,100953.03
2022-11-05T20:08:24.268Z,100958.06
2022-11-05T20:11:06.981Z,100965.70
2022-11-05T20:13:52.666Z,100968.54
2022-11-05T20:16:40.500Z,100970.36
2022-11-05T20:19:23.115Z,100974.55
2022-11-05T20:22:05.623Z,100971.42
2022-11-05T20:24:47.416Z,100978.85
2022-11-05T20:27:30.439Z,100982.83
2022-11-05T20:30:15.099Z,100985.74
2022-11-05T20:33:00.532Z,100987.54
2022-11-05T20:35:43.603Z,100987.27
2022-11-05T20:38:25.598Z,100985.84
2022-11-05T20:41:09.850Z,100987.38
2022-11-05T20:43:52.260Z,100990.67
2022-11-05T20:46:34.870Z,100991.41
2022-11-05T20:49:21.281Z,100991.02
2022-11-05T20:52:07.160Z,100985.74
2022-11-05T20:54:49.259Z,100988.36
2022-11-05T20:57:31.361Z,100992.66
2022-11-05T21:00:15.630Z,100991.00
2022-11-05T21:02:58.956Z,100995.66
2022-11-05T21:05:49.238Z,100999.04
2022-11-05T21:08:32.462Z,100995.27
2022-11-05T21:11:14.666Z,101001.46
2022-11-05T21:13:56.456Z,101003.10
2022-11-05T21:16:38.353Z,101000.16
2022-11-05T21:19:27.056Z,100996.70
2022-11-05T21:22:09.312Z,101002.33
2022-11-05T21:24:51.311Z,101004.45
2022-11-05T21:27:34.354Z,101006.15
2022-11-05T21:30:16.742Z,100999.91
2022-11-05T21:32:58.643Z,101008.23
2022-11-05T21:35:44.224Z,101008.31
2022-11-05T21:38:27.243Z,101010.88
2022-11-05T21:41:11.699Z,101010.64
2022-11-05T21:43:53.491Z,101010.74
2022-11-05T21:46:35.385Z,101013.20
2022-11-05T21:49:19.025Z,101013.85
2022-11-05T21:52:19.656Z,101008.40
2022-11-05T21:55:21.315Z,101018.49
2022-11-05T21:58:30.859Z,101011.10
2022-11-05T22:01:13.465Z,101011.02
2022-11-05T22:04:00.309Z,101012.88
2022-11-05T22:06:44.740Z,101015.15
2022-11-05T22:09:27.445Z,101016.70
2022-11-05T22:12:09.963Z,101015.73
2022-11-05T22:14:52.679Z,101013.81
2022-11-05T22:17:34.573Z,101010.06
2022-11-05T22:20:17.085Z,101014.04
2022-11-05T22:22:58.853Z,101017.70
2022-11-05T22:25:40.773Z,101019.94
2022-11-05T22:28:22.586Z,101021.11
2022-11-05T22:31:04.362Z,101020.36
2022-11-05T22:33:46.665Z,101021.58
2022-11-05T22:36:28.458Z,101023.39
2022-11-05T22:39:12.065Z,101023.52
2022-11-05T22:41:58.266Z,101026.40
2022-11-05T22:44:40.391Z,101034.45
2022-11-05T22:47:22.106Z,101030.60
2022-11-05T22:50:05.332Z,101025.72
2022-11-05T22:52:47.124Z,101025.16
2022-11-05T22:55:28.907Z,101024.52
2022-11-05T22:58:10.956Z,101022.09
2022-11-05T23:00:52.995Z,101020.77
2022-11-05T23:03:35.384Z,101028.14
2022-11-05T23:06:41.515Z,101030.15
2022-11-05T23:09:47.697Z,101031.34
2022-11-05T23:12:37.821Z,101032.70
2022-11-05T23:15:38.353Z,101031.17
2022-11-05T23:18:38.782Z,101027.73
2022-11-05T23:21:39.318Z,101028.34
2022-11-05T23:24:21.110Z,101029.19
2022-11-05T23:27:03.005Z,101024.35
2022-11-05T23:29:44.797Z,101021.89
2022-11-05T23:32:29.705Z,101018.56
2022-11-05T23:35:12.183Z,101018.17
2022-11-05T23:38:12.682Z,101024.78
2022-11-05T23:41:13.758Z,101024.52
2022-11-05T23:44:14.077Z,101023.18
2022-11-05T23:47:14.413Z,101026.78
2022-11-05T23:49:56.199Z,101029.02
2022-11-05T23:52:37.993Z,101032.06
2022-11-05T23:55:21.219Z,101033.88
2022-11-05T23:58:03.430Z,101027.96
